sensor_id;sensor_type;location;lat;lon;timestamp;pressure;altitude;pressure_sealevel;temperature;humidity
71361;BME280;59166;48.908;1.870;2023-06-22T00:06:30;100438.84;;;20.37;78.98
71361;BME280;59166;48.908;1.870;2023-06-22T00:12:15;100453.88;;;20.31;79.54
71361;BME280;59166;48.908;1.870;2023-06-22T00:17:20;100461.13;;;20.27;79.60
71361;BME280;59166;48.908;1.870;2023-06-22T00:22:28;100447.88;;;20.21;79.62
71361;BME280;59166;48.908;1.870;2023-06-22T00:27:40;100444.50;;;20.15;79.80
71361;BME280;59166;48.908;1.870;2023-06-22T00:32:57;100432.19;;;20.04;80.53
71361;BME280;59166;48.908;1.870;2023-06-22T00:38:10;100420.06;;;19.96;80.24
71361;BME280;59166;48.908;1.870;2023-06-22T00:59:51;100405.34;;;19.84;81.28
71361;BME280;59166;48.908;1.870;2023-06-22T01:04:58;100400.03;;;19.79;80.44
71361;BME280;59166;48.908;1.870;2023-06-22T01:10:29;100403.41;;;19.76;82.52
71361;BME280;59166;48.908;1.870;2023-06-22T01:15:59;100399.53;;;19.68;82.79
71361;BME280;59166;48.908;1.870;2023-06-22T01:26:37;100383.03;;;19.60;84.42
71361;BME280;59166;48.908;1.870;2023-06-22T01:31:41;100370.47;;;19.59;83.89
71361;BME280;59166;48.908;1.870;2023-06-22T01:36:44;100348.22;;;19.60;82.97
71361;BME280;59166;48.908;1.870;2023-06-22T01:41:47;100350.16;;;19.60;82.25
71361;BME280;59166;48.908;1.870;2023-06-22T01:52:30;100331.47;;;19.62;80.80
71361;BME280;59166;48.908;1.870;2023-06-22T01:57:32;100332.28;;;19.62;81.15
71361;BME280;59166;48.908;1.870;2023-06-22T02:02:38;100332.13;;;19.59;81.66
71361;BME280;59166;48.908;1.870;2023-06-22T02:07:47;100328.38;;;19.55;80.57
71361;BME280;59166;48.908;1.870;2023-06-22T02:18:13;100332.75;;;19.56;81.68
71361;BME280;59166;48.908;1.870;2023-06-22T02:23:24;100332.53;;;19.43;81.51
71361;BME280;59166;48.908;1.870;2023-06-22T02:28:26;100334.00;;;19.41;82.51
71361;BME280;59166;48.908;1.870;2023-06-22T02:33:26;100347.53;;;19.37;82.26
71361;BME280;59166;48.908;1.870;2023-06-22T02:38:32;100366.81;;;19.32;82.81
71361;BME280;59166;48.908;1.870;2023-06-22T02:43:33;100366.34;;;19.30;83.83
71361;BME280;59166;48.908;1.870;2023-06-22T02:48:35;100359.69;;;19.23;84.10
71361;BME280;59166;48.908;1.870;2023-06-22T02:53:37;100356.03;;;19.27;84.08
71361;BME280;59166;48.908;1.870;2023-06-22T02:58:38;100351.81;;;19.21;84.98
71361;BME280;59166;48.908;1.870;2023-06-22T03:03:39;100348.22;;;19.12;85.01
71361;BME280;59166;48.908;1.870;2023-06-22T03:08:42;100332.94;;;19.11;85.97
71361;BME280;59166;48.908;1.870;2023-06-22T03:13:43;100327.25;;;19.08;87.04
71361;BME280;59166;48.908;1.870;2023-06-22T03:18:44;100317.09;;;19.08;87.83
71361;BME280;59166;48.908;1.870;2023-06-22T03:23:49;100305.28;;;18.99;87.57
71361;BME280;59166;48.908;1.870;2023-06-22T03:28:50;100307.41;;;19.02;88.36
71361;BME280;59166;48.908;1.870;2023-06-22T03:33:51;100298.03;;;18.94;88.32
71361;BME280;59166;48.908;1.870;2023-06-22T03:38:53;100298.03;;;18.94;88.41
71361;BME280;59166;48.908;1.870;2023-06-22T03:43:54;100298.34;;;18.93;88.74
71361;BME280;59166;48.908;1.870;2023-06-22T03:54:37;100312.88;;;19.02;87.49
71361;BME280;59166;48.908;1.870;2023-06-22T04:06:04;100304.81;;;18.97;89.78
71361;BME280;59166;48.908;1.870;2023-06-22T04:11:15;100306.06;;;18.91;91.00
71361;BME280;59166;48.908;1.870;2023-06-22T04:16:26;100301.88;;;18.85;90.71
71361;BME280;59166;48.908;1.870;2023-06-22T04:21:47;100298.31;;;18.84;91.33
71361;BME280;59166;48.908;1.870;2023-06-22T04:26:55;100306.19;;;18.86;91.06
71361;BME280;59166;48.908;1.870;2023-06-22T04:32:13;100308.81;;;18.91;91.42
71361;BME280;59166;48.908;1.870;2023-06-22T04:37:20;100299.63;;;18.87;91.68
71361;BME280;59166;48.908;1.870;2023-06-22T04:42:26;100302.19;;;18.92;91.68
71361;BME280;59166;48.908;1.870;2023-06-22T04:47:39;100306.19;;;18.86;90.81
71361;BME280;59166;48.908;1.870;2023-06-22T04:52:46;100290.47;;;18.91;91.12
71361;BME280;59166;48.908;1.870;2023-06-22T04:57:49;100290.78;;;18.98;91.29
71361;BME280;59166;48.908;1.870;2023-06-22T05:03:08;100287.91;;;18.95;91.29
71361;BME280;59166;48.908;1.870;2023-06-22T05:08:32;100288.22;;;18.93;90.81
71361;BME280;59166;48.908;1.870;2023-06-22T05:13:46;100275.00;;;18.95;93.27
71361;BME280;59166;48.908;1.870;2023-06-22T05:19:14;100275.47;;;18.89;94.17
71361;BME280;59166;48.908;1.870;2023-06-22T05:24:39;100271.25;;;18.83;95.47
71361;BME280;59166;48.908;1.870;2023-06-22T05:29:44;100273.00;;;18.79;93.88
71361;BME280;59166;48.908;1.870;2023-06-22T05:40:23;100264.16;;;18.82;94.51
71361;BME280;59166;48.908;1.870;2023-06-22T05:45:54;100264.50;;;18.89;97.08
71361;BME280;59166;48.908;1.870;2023-06-22T05:51:05;100258.84;;;18.85;98.74
71361;BME280;59166;48.908;1.870;2023-06-22T05:56:10;100260.66;;;18.90;100.00
71361;BME280;59166;48.908;1.870;2023-06-22T06:01:16;100263.19;;;18.78;99.65
71361;BME280;59166;48.908;1.870;2023-06-22T06:06:17;100263.31;;;18.73;100.00
71361;BME280;59166;48.908;1.870;2023-06-22T06:11:28;100272.81;;;18.75;100.00
71361;BME280;59166;48.908;1.870;2023-06-22T06:16:43;100276.97;;;18.64;100.00
71361;BME280;59166;48.908;1.870;2023-06-22T06:27:04;100275.97;;;18.60;100.00
71361;BME280;59166;48.908;1.870;2023-06-22T06:32:12;100284.13;;;18.52;100.00
71361;BME280;59166;48.908;1.870;2023-06-22T06:37:14;100284.81;;;18.57;100.00
71361;BME280;59166;48.908;1.870;2023-06-22T06:42:39;100282.16;;;18.43;100.00
71361;BME280;59166;48.908;1.870;2023-06-22T06:48:26;100291.00;;;18.40;100.00
71361;BME280;59166;48.908;1.870;2023-06-22T06:54:02;100294.84;;;18.39;100.00
71361;BME280;59166;48.908;1.870;2023-06-22T07:28:09;100306.50;;;18.09;100.00
71361;BME280;59166;48.908;1.870;2023-06-22T07:33:27;100311.16;;;18.09;100.00
71361;BME280;59166;48.908;1.870;2023-06-22T07:50:20;100315.81;;;18.08;100.00
71361;BME280;59166;48.908;1.870;2023-06-22T08:01:14;100316.88;;;17.98;100.00
71361;BME280;59166;48.908;1.870;2023-06-22T08:06:42;100325.97;;;17.94;100.00
71361;BME280;59166;48.908;1.870;2023-06-22T08:23:00;100327.84;;;17.85;100.00
71361;BME280;59166;48.908;1.870;2023-06-22T08:28:01;100334.81;;;17.91;100.00
71361;BME280;59166;48.908;1.870;2023-06-22T08:33:02;100338.34;;;17.91;100.00
71361;BME280;59166;48.908;1.870;2023-06-22T08:38:04;100339.66;;;17.94;100.00
71361;BME280;59166;48.908;1.870;2023-06-22T08:43:05;100330.66;;;17.93;100.00
71361;BME280;59166;48.908;1.870;2023-06-22T08:48:06;100334.06;;;17.99;100.00
71361;BME280;59166;48.908;1.870;2023-06-22T08:53:16;100336.00;;;17.98;100.00
71361;BME280;59166;48.908;1.870;2023-06-22T08:58:17;100338.34;;;17.91;100.00
71361;BME280;59166;48.908;1.870;2023-06-22T09:03:18;100334.31;;;17.89;100.00
71361;BME280;59166;48.908;1.870;2023-06-22T09:08:20;100327.03;;;17.84;100.00
71361;BME280;59166;48.908;1.870;2023-06-22T09:13:21;100327.13;;;17.93;100.00
71361;BME280;59166;48.908;1.870;2023-06-22T09:18:22;100323.44;;;17.97;100.00
71361;BME280;59166;48.908;1.870;2023-06-22T09:23:24;100333.25;;;17.98;100.00
71361;BME280;59166;48.908;1.870;2023-06-22T09:28:25;100338.81;;;18.07;100.00
71361;BME280;59166;48.908;1.870;2023-06-22T09:33:26;100336.25;;;18.11;100.00
71361;BME280;59166;48.908;1.870;2023-06-22T09:38:28;100344.56;;;18.19;100.00
71361;BME280;59166;48.908;1.870;2023-06-22T09:43:30;100341.03;;;18.19;100.00
71361;BME280;59166;48.908;1.870;2023-06-22T09:48:31;100339.16;;;18.14;100.00
71361;BME280;59166;48.908;1.870;2023-06-22T09:53:33;100345.19;;;18.16;100.00
71361;BME280;59166;48.908;1.870;2023-06-22T09:58:34;100353.88;;;18.18;100.00
71361;BME280;59166;48.908;1.870;2023-06-22T10:03:35;100353.44;;;18.25;100.00
71361;BME280;59166;48.908;1.870;2023-06-22T10:08:37;100350.47;;;18.35;100.00
71361;BME280;59166;48.908;1.870;2023-06-22T10:13:38;100364.84;;;18.40;100.00
71361;BME280;59166;48.908;1.870;2023-06-22T10:18:39;100356.88;;;18.53;100.00
71361;BME280;59166;48.908;1.870;2023-06-22T10:23:41;100361.00;;;18.64;100.00
71361;BME280;59166;48.908;1.870;2023-06-22T10:28:42;100373.91;;;18.72;100.00
71361;BME280;59166;48.908;1.870;2023-06-22T10:33:42;100380.44;;;18.84;100.00
71361;BME280;59166;48.908;1.870;2023-06-22T10:38:44;100378.84;;;18.92;100.00
71361;BME280;59166;48.908;1.870;2023-06-22T10:43:45;100384.38;;;19.01;100.00
71361;BME280;59166;48.908;1.870;2023-06-22T10:48:46;100388.69;;;19.15;100.00
71361;BME280;59166;48.908;1.870;2023-06-22T10:53:48;100388.16;;;19.44;100.00
71361;BME280;59166;48.908;1.870;2023-06-22T10:58:48;100396.78;;;19.77;100.00
71361;BME280;59166;48.908;1.870;2023-06-22T11:03:49;100404.88;;;19.90;100.00
71361;BME280;59166;48.908;1.870;2023-06-22T11:08:51;100416.38;;;20.01;100.00
71361;BME280;59166;48.908;1.870;2023-06-22T11:13:52;100419.28;;;19.96;100.00
71361;BME280;59166;48.908;1.870;2023-06-22T11:18:53;100432.31;;;19.90;100.00
71361;BME280;59166;48.908;1.870;2023-06-22T11:23:55;100437.31;;;19.97;100.00
71361;BME280;59166;48.908;1.870;2023-06-22T11:28:56;100429.97;;;20.06;100.00
71361;BME280;59166;48.908;1.870;2023-06-22T11:33:56;100435.78;;;20.22;100.00
71361;BME280;59166;48.908;1.870;2023-06-22T11:38:58;100429.50;;;20.30;100.00
71361;BME280;59166;48.908;1.870;2023-06-22T11:43:59;100433.38;;;20.46;100.00
71361;BME280;59166;48.908;1.870;2023-06-22T11:49:00;100446.28;;;20.45;100.00
71361;BME280;59166;48.908;1.870;2023-06-22T11:54:02;100435.66;;;20.53;100.00
71361;BME280;59166;48.908;1.870;2023-06-22T11:59:03;100438.88;;;20.55;100.00
71361;BME280;59166;48.908;1.870;2023-06-22T12:04:04;100435.13;;;20.68;100.00
71361;BME280;59166;48.908;1.870;2023-06-22T12:09:06;100431.25;;;20.86;100.00
71361;BME280;59166;48.908;1.870;2023-06-22T12:14:07;100440.59;;;21.19;100.00
71361;BME280;59166;48.908;1.870;2023-06-22T12:19:08;100450.19;;;21.51;100.00
71361;BME280;59166;48.908;1.870;2023-06-22T12:24:10;100441.94;;;21.51;100.00
71361;BME280;59166;48.908;1.870;2023-06-22T12:29:10;100454.56;;;21.90;100.00
71361;BME280;59166;48.908;1.870;2023-06-22T12:34:11;100465.81;;;22.56;100.00
71361;BME280;59166;48.908;1.870;2023-06-22T12:39:13;100465.38;;;23.19;99.26
71361;BME280;59166;48.908;1.870;2023-06-22T12:44:13;100470.59;;;23.00;94.52
71361;BME280;59166;48.908;1.870;2023-06-22T12:49:14;100465.94;;;23.25;99.44
71361;BME280;59166;48.908;1.870;2023-06-22T12:54:16;100473.50;;;23.04;92.01
71361;BME280;59166;48.908;1.870;2023-06-22T12:59:17;100477.09;;;22.83;92.70
71361;BME280;59166;48.908;1.870;2023-06-22T13:04:18;100477.00;;;22.50;85.20
71361;BME280;59166;48.908;1.870;2023-06-22T13:09:20;100471.28;;;22.35;90.58
71361;BME280;59166;48.908;1.870;2023-06-22T13:14:20;100486.81;;;22.10;95.67
71361;BME280;59166;48.908;1.870;2023-06-22T13:19:21;100483.53;;;21.87;97.32
71361;BME280;59166;48.908;1.870;2023-06-22T13:24:23;100481.09;;;21.86;100.00
71361;BME280;59166;48.908;1.870;2023-06-22T13:29:24;100478.41;;;21.77;100.00
71361;BME280;59166;48.908;1.870;2023-06-22T13:34:24;100470.25;;;21.89;98.93
71361;BME280;59166;48.908;1.870;2023-06-22T13:39:27;100454.22;;;22.21;100.00
71361;BME280;59166;48.908;1.870;2023-06-22T13:44:27;100457.47;;;22.64;94.89
71361;BME280;59166;48.908;1.870;2023-06-22T13:49:28;100461.88;;;22.77;93.04
71361;BME280;59166;48.908;1.870;2023-06-22T13:54:30;100470.63;;;22.79;90.52
71361;BME280;59166;48.908;1.870;2023-06-22T13:59:31;100471.78;;;22.58;100.00
71361;BME280;59166;48.908;1.870;2023-06-22T14:04:31;100477.91;;;22.63;94.79
71361;BME280;59166;48.908;1.870;2023-06-22T14:09:34;100485.53;;;22.99;83.29
71361;BME280;59166;48.908;1.870;2023-06-22T14:14:34;100495.56;;;23.48;78.27
71361;BME280;59166;48.908;1.870;2023-06-22T14:19:35;100487.16;;;24.02;73.31
71361;BME280;59166;48.908;1.870;2023-06-22T14:24:37;100492.63;;;24.38;76.21
71361;BME280;59166;48.908;1.870;2023-06-22T14:29:38;100489.66;;;25.11;65.19
71361;BME280;59166;48.908;1.870;2023-06-22T14:34:38;100488.78;;;25.82;69.44
71361;BME280;59166;48.908;1.870;2023-06-22T14:39:41;100486.16;;;26.20;59.68
71361;BME280;59166;48.908;1.870;2023-06-22T14:44:41;100495.63;;;26.35;64.41
71361;BME280;59166;48.908;1.870;2023-06-22T14:49:42;100497.91;;;26.48;56.51
71361;BME280;59166;48.908;1.870;2023-06-22T14:54:44;100507.53;;;26.74;57.65
71361;BME280;59166;48.908;1.870;2023-06-22T14:59:45;100510.88;;;26.44;57.46
71361;BME280;59166;48.908;1.870;2023-06-22T15:04:46;100524.56;;;26.06;63.29
71361;BME280;59166;48.908;1.870;2023-06-22T15:09:48;100526.72;;;25.50;60.90
71361;BME280;59166;48.908;1.870;2023-06-22T15:14:48;100522.59;;;25.75;63.11
71361;BME280;59166;48.908;1.870;2023-06-22T15:19:49;100519.50;;;26.24;60.59
71361;BME280;59166;48.908;1.870;2023-06-22T15:24:51;100525.78;;;26.40;56.01
71361;BME280;59166;48.908;1.870;2023-06-22T15:29:52;100529.25;;;26.52;52.79
71361;BME280;59166;48.908;1.870;2023-06-22T15:34:53;100530.03;;;26.69;52.06
71361;BME280;59166;48.908;1.870;2023-06-22T15:39:55;100542.47;;;26.94;49.90
71361;BME280;59166;48.908;1.870;2023-06-22T15:44:56;100550.44;;;26.95;53.80
71361;BME280;59166;48.908;1.870;2023-06-22T15:49:57;100546.53;;;26.81;49.47
71361;BME280;59166;48.908;1.870;2023-06-22T15:54:59;100538.53;;;27.14;52.69
71361;BME280;59166;48.908;1.870;2023-06-22T16:00:00;100546.69;;;26.88;51.54
71361;BME280;59166;48.908;1.870;2023-06-22T16:05:01;100548.69;;;25.90;59.03
71361;BME280;59166;48.908;1.870;2023-06-22T16:10:03;100553.78;;;25.88;59.00
71361;BME280;59166;48.908;1.870;2023-06-22T16:15:05;100558.22;;;26.39;58.07
71361;BME280;59166;48.908;1.870;2023-06-22T16:20:06;100560.66;;;25.94;58.81
71361;BME280;59166;48.908;1.870;2023-06-22T16:25:09;100568.53;;;26.23;53.81
71361;BME280;59166;48.908;1.870;2023-06-22T16:30:10;100578.19;;;26.29;54.95
71361;BME280;59166;48.908;1.870;2023-06-22T16:35:11;100584.47;;;26.11;55.63
71361;BME280;59166;48.908;1.870;2023-06-22T16:40:16;100580.84;;;25.51;55.75
71361;BME280;59166;48.908;1.870;2023-06-22T16:45:18;100593.66;;;24.51;58.13
71361;BME280;59166;48.908;1.870;2023-06-22T16:50:18;100611.09;;;23.95;60.57
71361;BME280;59166;48.908;1.870;2023-06-22T16:55:21;100616.72;;;23.66;63.27
71361;BME280;59166;48.908;1.870;2023-06-22T17:00:22;100620.16;;;23.50;64.76
71361;BME280;59166;48.908;1.870;2023-06-22T17:05:22;100634.34;;;23.40;68.50
71361;BME280;59166;48.908;1.870;2023-06-22T17:10:26;100629.50;;;23.37;72.48
71361;BME280;59166;48.908;1.870;2023-06-22T17:15:28;100643.06;;;23.42;73.68
71361;BME280;59166;48.908;1.870;2023-06-22T17:20:32;100652.53;;;23.74;66.77
71361;BME280;59166;48.908;1.870;2023-06-22T17:25:34;100666.78;;;24.09;64.25
71361;BME280;59166;48.908;1.870;2023-06-22T17:30:35;100682.00;;;24.15;63.94
71361;BME280;59166;48.908;1.870;2023-06-22T17:35:45;100686.59;;;24.23;63.28
71361;BME280;59166;48.908;1.870;2023-06-22T17:40:48;100683.59;;;24.16;64.07
71361;BME280;59166;48.908;1.870;2023-06-22T17:45:49;100688.66;;;23.81;62.20
71361;BME280;59166;48.908;1.870;2023-06-22T17:50:51;100692.28;;;23.73;63.14
71361;BME280;59166;48.908;1.870;2023-06-22T17:55:54;100692.03;;;23.45;66.00
71361;BME280;59166;48.908;1.870;2023-06-22T18:00:54;100698.50;;;23.29;67.33
71361;BME280;59166;48.908;1.870;2023-06-22T18:05:55;100702.06;;;23.00;69.49
71361;BME280;59166;48.908;1.870;2023-06-22T18:11:00;100710.16;;;22.76;65.82
71361;BME280;59166;48.908;1.870;2023-06-22T18:16:04;100712.97;;;22.59;68.62
71361;BME280;59166;48.908;1.870;2023-06-22T18:21:06;100708.78;;;22.44;68.45
71361;BME280;59166;48.908;1.870;2023-06-22T18:26:10;100708.97;;;22.30;70.32
71361;BME280;59166;48.908;1.870;2023-06-22T18:31:11;100712.13;;;22.12;72.19
71361;BME280;59166;48.908;1.870;2023-06-22T18:36:13;100708.91;;;22.01;71.64
71361;BME280;59166;48.908;1.870;2023-06-22T18:41:22;100720.91;;;21.88;73.24
71361;BME280;59166;48.908;1.870;2023-06-22T18:46:30;100722.03;;;21.87;74.24
71361;BME280;59166;48.908;1.870;2023-06-22T18:51:48;100721.25;;;21.78;76.38
71361;BME280;59166;48.908;1.870;2023-06-22T18:56:55;100729.28;;;21.66;77.12
71361;BME280;59166;48.908;1.870;2023-06-22T19:02:03;100745.94;;;21.52;77.63
71361;BME280;59166;48.908;1.870;2023-06-22T19:07:10;100743.00;;;21.23;79.00
71361;BME280;59166;48.908;1.870;2023-06-22T19:12:21;100748.97;;;21.16;81.38
71361;BME280;59166;48.908;1.870;2023-06-22T19:17:22;100753.00;;;21.10;80.41
71361;BME280;59166;48.908;1.870;2023-06-22T19:22:24;100764.13;;;21.05;81.75
71361;BME280;59166;48.908;1.870;2023-06-22T19:27:45;100769.69;;;20.83;80.10
71361;BME280;59166;48.908;1.870;2023-06-22T19:32:47;100775.44;;;20.73;82.43
71361;BME280;59166;48.908;1.870;2023-06-22T19:37:48;100776.34;;;20.60;79.26
71361;BME280;59166;48.908;1.870;2023-06-22T19:42:53;100783.88;;;20.45;80.14
71361;BME280;59166;48.908;1.870;2023-06-22T19:47:56;100799.47;;;20.36;79.85
71361;BME280;59166;48.908;1.870;2023-06-22T19:53:06;100799.59;;;20.09;76.54
71361;BME280;59166;48.908;1.870;2023-06-22T19:58:12;100815.06;;;20.05;76.10
71361;BME280;59166;48.908;1.870;2023-06-22T20:03:22;100816.19;;;19.90;75.98
71361;BME280;59166;48.908;1.870;2023-06-22T20:08:28;100822.72;;;19.81;75.22
71361;BME280;59166;48.908;1.870;2023-06-22T20:13:30;100831.78;;;19.68;77.22
71361;BME280;59166;48.908;1.870;2023-06-22T20:18:33;100835.28;;;19.46;76.35
71361;BME280;59166;48.908;1.870;2023-06-22T20:23:33;100848.41;;;19.35;76.62
71361;BME280;59166;48.908;1.870;2023-06-22T20:28:38;100856.69;;;19.17;77.95
71361;BME280;59166;48.908;1.870;2023-06-22T20:33:39;100859.00;;;19.10;78.72
71361;BME280;59166;48.908;1.870;2023-06-22T20:38:40;100865.97;;;19.02;79.13
71361;BME280;59166;48.908;1.870;2023-06-22T20:43:55;100866.91;;;18.97;78.31
71361;BME280;59166;48.908;1.870;2023-06-22T20:49:13;100870.91;;;18.73;82.54
71361;BME280;59166;48.908;1.870;2023-06-22T20:54:14;100870.59;;;18.61;84.14
71361;BME280;59166;48.908;1.870;2023-06-22T20:59:24;100874.00;;;18.53;85.57
71361;BME280;59166;48.908;1.870;2023-06-22T21:04:24;100877.94;;;18.46;86.66
71361;BME280;59166;48.908;1.870;2023-06-22T21:09:27;100886.72;;;18.43;86.92
71361;BME280;59166;48.908;1.870;2023-06-22T21:14:34;100895.91;;;18.34;85.37
71361;BME280;59166;48.908;1.870;2023-06-22T21:19:35;100901.00;;;18.22;86.59
71361;BME280;59166;48.908;1.870;2023-06-22T21:24:36;100906.00;;;18.15;87.74
71361;BME280;59166;48.908;1.870;2023-06-22T21:29:39;100909.47;;;18.02;88.14
71361;BME280;59166;48.908;1.870;2023-06-22T21:34:41;100903.78;;;17.98;87.15
71361;BME280;59166;48.908;1.870;2023-06-22T21:39:44;100913.75;;;17.89;87.29
71361;BME280;59166;48.908;1.870;2023-06-22T21:44:46;100924.75;;;17.84;87.59
71361;BME280;59166;48.908;1.870;2023-06-22T21:49:47;100937.94;;;17.77;88.01
71361;BME280;59166;48.908;1.870;2023-06-22T21:54:48;100936.47;;;17.66;88.78
71361;BME280;59166;48.908;1.870;2023-06-22T22:00:10;100938.19;;;17.57;90.04
71361;BME280;59166;48.908;1.870;2023-06-22T22:05:15;100946.47;;;17.52;90.51
71361;BME280;59166;48.908;1.870;2023-06-22T22:10:16;100954.50;;;17.43;90.20
71361;BME280;59166;48.908;1.870;2023-06-22T22:15:19;100944.47;;;17.33;90.15
71361;BME280;59166;48.908;1.870;2023-06-22T22:20:31;100954.13;;;17.26;91.69
71361;BME280;59166;48.908;1.870;2023-06-22T22:26:53;100951.19;;;17.17;91.84
71361;BME280;59166;48.908;1.870;2023-06-22T22:30:58;100949.63;;;17.06;93.00
71361;BME280;59166;48.908;1.870;2023-06-22T22:35:59;100963.66;;;16.94;93.73
71361;BME280;59166;48.908;1.870;2023-06-22T22:40:59;100968.56;;;16.98;94.79
71361;BME280;59166;48.908;1.870;2023-06-22T23:26:23;101003.50;;;16.13;100.00
71361;BME280;59166;48.908;1.870;2023-06-22T23:31:23;101000.00;;;15.97;100.00
71361;BME280;59166;48.908;1.870;2023-06-22T23:36:25;101018.59;;;15.80;100.00
71361;BME280;59166;48.908;1.870;2023-06-22T23:41:26;101017.25;;;15.72;100.00
71361;BME280;59166;48.908;1.870;2023-06-22T23:46:27;101022.41;;;15.79;100.00
71361;BME280;59166;48.908;1.870;2023-06-22T23:51:29;101027.84;;;15.79;100.00
71361;BME280;59166;48.908;1.870;2023-06-22T23:56:29;101020.75;;;15.78;100.00
